sensor_id;sensor_type;location;lat;lon;timestamp;P1;durP1;ratioP1;P2;durP2;ratioP2
69085;SDS011;56186;59.144;37.936;2022-08-19T13:57:13;10.00;;;3.33;;
69085;SDS011;56186;59.144;37.936;2022-08-19T13:59:40;9.60;;;3.45;;
69085;SDS011;56186;59.144;37.936;2022-08-19T14:02:06;12.18;;;3.10;;
69085;SDS011;56186;59.144;37.936;2022-08-19T14:04:33;11.00;;;4.32;;
69085;SDS011;56186;59.144;37.936;2022-08-19T14:06:58;8.55;;;3.45;;
69085;SDS011;56186;59.144;37.936;2022-08-19T14:09:24;9.05;;;3.13;;
69085;SDS011;56186;59.144;37.936;2022-08-19T14:11:50;7.93;;;3.45;;
69085;SDS011;56186;59.144;37.936;2022-08-19T14:14:17;12.20;;;3.90;;
69085;SDS011;56186;59.144;37.936;2022-08-19T14:16:42;10.25;;;4.22;;
69085;SDS011;56186;59.144;37.936;2022-08-19T14:19:08;11.60;;;4.50;;
69085;SDS011;56186;59.144;37.936;2022-08-19T14:21:34;12.40;;;4.28;;
69085;SDS011;56186;59.144;37.936;2022-08-19T14:24:02;8.23;;;3.78;;
69085;SDS011;56186;59.144;37.936;2022-08-19T14:26:28;11.15;;;4.53;;
69085;SDS011;56186;59.144;37.936;2022-08-19T14:28:54;15.35;;;6.38;;
69085;SDS011;56186;59.144;37.936;2022-08-19T14:31:23;15.35;;;7.00;;
69085;SDS011;56186;59.144;37.936;2022-08-19T14:33:50;13.93;;;9.65;;
69085;SDS011;56186;59.144;37.936;2022-08-19T14:36:18;14.88;;;8.80;;
69085;SDS011;56186;59.144;37.936;2022-08-19T14:38:46;18.13;;;7.85;;
69085;SDS011;56186;59.144;37.936;2022-08-19T14:41:15;15.63;;;6.47;;
69085;SDS011;56186;59.144;37.936;2022-08-19T14:43:46;20.70;;;8.18;;
69085;SDS011;56186;59.144;37.936;2022-08-19T14:46:16;14.68;;;6.95;;
69085;SDS011;56186;59.144;37.936;2022-08-19T14:48:46;15.07;;;5.47;;
69085;SDS011;56186;59.144;37.936;2022-08-19T14:51:13;12.50;;;4.30;;
69085;SDS011;56186;59.144;37.936;2022-08-19T14:53:39;17.52;;;4.10;;
69085;SDS011;56186;59.144;37.936;2022-08-19T14:56:08;10.75;;;3.50;;
69085;SDS011;56186;59.144;37.936;2022-08-19T14:58:37;11.90;;;3.05;;
69085;SDS011;56186;59.144;37.936;2022-08-19T15:01:06;8.52;;;3.40;;
69085;SDS011;56186;59.144;37.936;2022-08-19T15:03:32;14.55;;;3.70;;
69085;SDS011;56186;59.144;37.936;2022-08-19T15:05:59;17.77;;;3.40;;
69085;SDS011;56186;59.144;37.936;2022-08-19T15:08:28;10.48;;;3.28;;
69085;SDS011;56186;59.144;37.936;2022-08-19T15:10:56;9.75;;;3.30;;
69085;SDS011;56186;59.144;37.936;2022-08-19T15:13:23;9.00;;;3.47;;
69085;SDS011;56186;59.144;37.936;2022-08-19T15:15:51;14.48;;;3.17;;
69085;SDS011;56186;59.144;37.936;2022-08-19T15:18:18;11.57;;;3.38;;
69085;SDS011;56186;59.144;37.936;2022-08-19T15:20:46;14.27;;;3.75;;
69085;SDS011;56186;59.144;37.936;2022-08-19T15:23:13;25.65;;;14.10;;
69085;SDS011;56186;59.144;37.936;2022-08-19T15:25:40;16.35;;;6.95;;
69085;SDS011;56186;59.144;37.936;2022-08-19T15:28:07;20.67;;;9.15;;
69085;SDS011;56186;59.144;37.936;2022-08-19T15:30:36;15.65;;;5.75;;
69085;SDS011;56186;59.144;37.936;2022-08-19T15:35:30;15.50;;;4.32;;
69085;SDS011;56186;59.144;37.936;2022-08-19T15:37:57;16.02;;;4.88;;
69085;SDS011;56186;59.144;37.936;2022-08-19T15:40:24;14.20;;;4.18;;
69085;SDS011;56186;59.144;37.936;2022-08-19T15:42:52;15.43;;;4.38;;
69085;SDS011;56186;59.144;37.936;2022-08-19T15:45:23;13.20;;;4.07;;
69085;SDS011;56186;59.144;37.936;2022-08-19T15:47:58;10.00;;;4.10;;
69085;SDS011;56186;59.144;37.936;2022-08-19T15:50:25;13.07;;;3.83;;
69085;SDS011;56186;59.144;37.936;2022-08-19T15:52:55;23.90;;;5.30;;
69085;SDS011;56186;59.144;37.936;2022-08-19T15:55:34;13.65;;;4.80;;
69085;SDS011;56186;59.144;37.936;2022-08-19T15:58:03;16.40;;;4.38;;
69085;SDS011;56186;59.144;37.936;2022-08-19T16:00:49;14.75;;;5.43;;
69085;SDS011;56186;59.144;37.936;2022-08-19T16:03:34;17.33;;;4.45;;
69085;SDS011;56186;59.144;37.936;2022-08-19T16:06:18;16.70;;;4.70;;
69085;SDS011;56186;59.144;37.936;2022-08-19T16:08:51;17.33;;;5.20;;
69085;SDS011;56186;59.144;37.936;2022-08-19T16:11:22;19.08;;;5.43;;
69085;SDS011;56186;59.144;37.936;2022-08-19T16:13:55;15.13;;;5.45;;
69085;SDS011;56186;59.144;37.936;2022-08-19T16:16:23;14.18;;;6.13;;
69085;SDS011;56186;59.144;37.936;2022-08-19T16:18:53;14.73;;;6.00;;
69085;SDS011;56186;59.144;37.936;2022-08-19T16:21:23;14.13;;;7.00;;
69085;SDS011;56186;59.144;37.936;2022-08-19T16:23:51;14.20;;;6.68;;
69085;SDS011;56186;59.144;37.936;2022-08-19T16:26:18;15.15;;;7.43;;
69085;SDS011;56186;59.144;37.936;2022-08-19T16:28:46;25.08;;;8.98;;
69085;SDS011;56186;59.144;37.936;2022-08-19T16:31:13;15.68;;;8.15;;
69085;SDS011;56186;59.144;37.936;2022-08-19T16:33:40;15.65;;;7.43;;
69085;SDS011;56186;59.144;37.936;2022-08-19T16:36:06;13.00;;;7.07;;
69085;SDS011;56186;59.144;37.936;2022-08-19T16:38:33;11.75;;;6.65;;
69085;SDS011;56186;59.144;37.936;2022-08-19T16:40:59;15.10;;;7.20;;
69085;SDS011;56186;59.144;37.936;2022-08-19T16:43:26;17.50;;;9.25;;
69085;SDS011;56186;59.144;37.936;2022-08-19T16:45:55;11.25;;;7.03;;
69085;SDS011;56186;59.144;37.936;2022-08-19T16:48:23;12.95;;;6.15;;
69085;SDS011;56186;59.144;37.936;2022-08-19T16:50:54;13.75;;;6.47;;
69085;SDS011;56186;59.144;37.936;2022-08-19T16:53:23;20.48;;;9.98;;
69085;SDS011;56186;59.144;37.936;2022-08-19T16:58:37;23.80;;;15.23;;
69085;SDS011;56186;59.144;37.936;2022-08-19T17:01:05;17.95;;;15.68;;
69085;SDS011;56186;59.144;37.936;2022-08-19T17:03:33;18.20;;;12.13;;
69085;SDS011;56186;59.144;37.936;2022-08-19T17:05:59;18.55;;;9.80;;
69085;SDS011;56186;59.144;37.936;2022-08-19T17:08:28;12.75;;;7.65;;
69085;SDS011;56186;59.144;37.936;2022-08-19T17:10:57;16.00;;;7.93;;
69085;SDS011;56186;59.144;37.936;2022-08-19T17:13:24;14.40;;;7.00;;
69085;SDS011;56186;59.144;37.936;2022-08-19T17:15:52;17.35;;;7.40;;
69085;SDS011;56186;59.144;37.936;2022-08-19T17:18:19;18.10;;;7.45;;
69085;SDS011;56186;59.144;37.936;2022-08-19T17:20:47;16.85;;;6.32;;
69085;SDS011;56186;59.144;37.936;2022-08-19T17:25:42;11.27;;;5.38;;
69085;SDS011;56186;59.144;37.936;2022-08-19T17:28:42;13.45;;;5.40;;
69085;SDS011;56186;59.144;37.936;2022-08-19T17:31:28;14.57;;;4.93;;
69085;SDS011;56186;59.144;37.936;2022-08-19T17:33:56;11.25;;;4.70;;
69085;SDS011;56186;59.144;37.936;2022-08-19T17:36:24;11.48;;;5.32;;
69085;SDS011;56186;59.144;37.936;2022-08-19T17:38:54;13.00;;;6.05;;
69085;SDS011;56186;59.144;37.936;2022-08-19T17:41:22;15.68;;;5.30;;
69085;SDS011;56186;59.144;37.936;2022-08-19T17:43:50;12.38;;;4.70;;
69085;SDS011;56186;59.144;37.936;2022-08-19T17:46:16;13.98;;;4.55;;
69085;SDS011;56186;59.144;37.936;2022-08-19T17:48:43;11.95;;;5.15;;
69085;SDS011;56186;59.144;37.936;2022-08-19T17:51:19;12.77;;;5.30;;
69085;SDS011;56186;59.144;37.936;2022-08-19T17:53:57;13.40;;;5.10;;
69085;SDS011;56186;59.144;37.936;2022-08-19T17:56:24;10.70;;;4.95;;
69085;SDS011;56186;59.144;37.936;2022-08-19T17:58:53;12.68;;;5.10;;
69085;SDS011;56186;59.144;37.936;2022-08-19T18:01:19;11.27;;;4.90;;
69085;SDS011;56186;59.144;37.936;2022-08-19T18:03:46;13.50;;;3.97;;
69085;SDS011;56186;59.144;37.936;2022-08-19T18:06:13;15.45;;;4.07;;
69085;SDS011;56186;59.144;37.936;2022-08-19T18:08:41;14.60;;;3.92;;
69085;SDS011;56186;59.144;37.936;2022-08-19T18:11:11;23.38;;;14.57;;
69085;SDS011;56186;59.144;37.936;2022-08-19T18:13:37;27.83;;;16.73;;
69085;SDS011;56186;59.144;37.936;2022-08-19T18:16:05;24.63;;;16.77;;
69085;SDS011;56186;59.144;37.936;2022-08-19T18:18:40;16.75;;;10.85;;
69085;SDS011;56186;59.144;37.936;2022-08-19T18:21:08;15.20;;;6.80;;
69085;SDS011;56186;59.144;37.936;2022-08-19T18:23:41;14.15;;;7.25;;
69085;SDS011;56186;59.144;37.936;2022-08-19T18:26:07;18.10;;;6.78;;
69085;SDS011;56186;59.144;37.936;2022-08-19T18:28:33;10.27;;;5.82;;
69085;SDS011;56186;59.144;37.936;2022-08-19T18:30:59;13.65;;;5.70;;
69085;SDS011;56186;59.144;37.936;2022-08-19T18:33:27;18.55;;;6.60;;
69085;SDS011;56186;59.144;37.936;2022-08-19T18:35:53;15.52;;;5.22;;
69085;SDS011;56186;59.144;37.936;2022-08-19T18:38:20;11.30;;;5.22;;
69085;SDS011;56186;59.144;37.936;2022-08-19T18:41:06;10.95;;;5.45;;
69085;SDS011;56186;59.144;37.936;2022-08-19T18:43:52;11.98;;;6.07;;
69085;SDS011;56186;59.144;37.936;2022-08-19T18:48:22;12.23;;;6.20;;
69085;SDS011;56186;59.144;37.936;2022-08-19T18:51:07;11.07;;;6.78;;
69085;SDS011;56186;59.144;37.936;2022-08-19T18:53:35;18.80;;;6.30;;
69085;SDS011;56186;59.144;37.936;2022-08-19T18:56:04;11.82;;;6.78;;
69085;SDS011;56186;59.144;37.936;2022-08-19T18:58:32;16.35;;;8.30;;
69085;SDS011;56186;59.144;37.936;2022-08-19T19:01:00;14.38;;;8.27;;
69085;SDS011;56186;59.144;37.936;2022-08-19T19:03:41;14.98;;;10.25;;
69085;SDS011;56186;59.144;37.936;2022-08-19T19:06:14;13.52;;;7.85;;
69085;SDS011;56186;59.144;37.936;2022-08-19T19:08:52;15.27;;;11.57;;
69085;SDS011;56186;59.144;37.936;2022-08-19T19:11:23;20.75;;;12.43;;
69085;SDS011;56186;59.144;37.936;2022-08-19T19:13:58;22.63;;;16.83;;
69085;SDS011;56186;59.144;37.936;2022-08-19T19:16:28;28.60;;;21.60;;
69085;SDS011;56186;59.144;37.936;2022-08-19T19:18:55;31.42;;;28.02;;
69085;SDS011;56186;59.144;37.936;2022-08-19T19:21:23;33.95;;;26.88;;
69085;SDS011;56186;59.144;37.936;2022-08-19T19:23:52;35.85;;;22.98;;
69085;SDS011;56186;59.144;37.936;2022-08-19T19:26:20;21.70;;;16.85;;
69085;SDS011;56186;59.144;37.936;2022-08-19T19:28:47;17.85;;;12.60;;
69085;SDS011;56186;59.144;37.936;2022-08-19T19:31:22;12.63;;;7.97;;
69085;SDS011;56186;59.144;37.936;2022-08-19T19:33:51;17.15;;;9.40;;
69085;SDS011;56186;59.144;37.936;2022-08-19T19:36:20;13.40;;;9.50;;
69085;SDS011;56186;59.144;37.936;2022-08-19T19:39:10;16.23;;;11.32;;
69085;SDS011;56186;59.144;37.936;2022-08-19T19:41:36;19.60;;;11.25;;
69085;SDS011;56186;59.144;37.936;2022-08-19T19:44:03;17.80;;;11.07;;
69085;SDS011;56186;59.144;37.936;2022-08-19T19:46:30;14.23;;;10.10;;
69085;SDS011;56186;59.144;37.936;2022-08-19T19:48:57;19.08;;;9.73;;
69085;SDS011;56186;59.144;37.936;2022-08-19T19:51:23;18.35;;;10.82;;
69085;SDS011;56186;59.144;37.936;2022-08-19T19:53:50;15.48;;;11.07;;
69085;SDS011;56186;59.144;37.936;2022-08-19T19:56:56;17.83;;;10.32;;
69085;SDS011;56186;59.144;37.936;2022-08-19T19:59:22;16.23;;;10.40;;
69085;SDS011;56186;59.144;37.936;2022-08-19T20:01:48;16.95;;;8.45;;
69085;SDS011;56186;59.144;37.936;2022-08-19T20:04:15;18.00;;;9.02;;
69085;SDS011;56186;59.144;37.936;2022-08-19T20:06:42;15.45;;;8.90;;
69085;SDS011;56186;59.144;37.936;2022-08-19T20:09:10;13.43;;;8.40;;
69085;SDS011;56186;59.144;37.936;2022-08-19T20:14:13;15.57;;;11.82;;
69085;SDS011;56186;59.144;37.936;2022-08-19T20:16:41;16.52;;;12.02;;
69085;SDS011;56186;59.144;37.936;2022-08-19T20:19:11;15.65;;;11.20;;
69085;SDS011;56186;59.144;37.936;2022-08-19T20:21:39;15.98;;;11.15;;
69085;SDS011;56186;59.144;37.936;2022-08-19T20:24:09;15.95;;;9.70;;
69085;SDS011;56186;59.144;37.936;2022-08-19T20:26:37;17.55;;;8.57;;
69085;SDS011;56186;59.144;37.936;2022-08-19T20:29:04;16.42;;;8.50;;
69085;SDS011;56186;59.144;37.936;2022-08-19T20:31:32;17.73;;;13.52;;
69085;SDS011;56186;59.144;37.936;2022-08-19T20:33:58;28.63;;;13.95;;
69085;SDS011;56186;59.144;37.936;2022-08-19T20:36:25;16.92;;;11.25;;
69085;SDS011;56186;59.144;37.936;2022-08-19T20:38:51;18.08;;;11.20;;
69085;SDS011;56186;59.144;37.936;2022-08-19T20:41:18;18.58;;;10.88;;
69085;SDS011;56186;59.144;37.936;2022-08-19T20:43:46;14.80;;;10.30;;
69085;SDS011;56186;59.144;37.936;2022-08-19T20:46:16;15.93;;;8.70;;
69085;SDS011;56186;59.144;37.936;2022-08-19T20:48:43;12.45;;;7.95;;
69085;SDS011;56186;59.144;37.936;2022-08-19T20:51:10;15.45;;;8.90;;
69085;SDS011;56186;59.144;37.936;2022-08-19T20:53:39;15.60;;;8.40;;
69085;SDS011;56186;59.144;37.936;2022-08-19T20:56:06;21.08;;;13.52;;
69085;SDS011;56186;59.144;37.936;2022-08-19T20:58:33;16.55;;;11.57;;
69085;SDS011;56186;59.144;37.936;2022-08-19T21:01:01;19.02;;;13.02;;
69085;SDS011;56186;59.144;37.936;2022-08-19T21:03:30;22.05;;;14.20;;
69085;SDS011;56186;59.144;37.936;2022-08-19T21:05:59;20.08;;;12.75;;
69085;SDS011;56186;59.144;37.936;2022-08-19T21:08:25;20.67;;;14.55;;
69085;SDS011;56186;59.144;37.936;2022-08-19T21:10:52;21.60;;;13.50;;
69085;SDS011;56186;59.144;37.936;2022-08-19T21:13:20;20.58;;;13.10;;
69085;SDS011;56186;59.144;37.936;2022-08-19T21:15:47;20.75;;;11.30;;
69085;SDS011;56186;59.144;37.936;2022-08-19T21:18:14;28.90;;;13.70;;
69085;SDS011;56186;59.144;37.936;2022-08-19T21:20:42;16.60;;;10.43;;
69085;SDS011;56186;59.144;37.936;2022-08-19T21:23:10;16.25;;;10.63;;
69085;SDS011;56186;59.144;37.936;2022-08-19T21:25:39;16.33;;;11.07;;
69085;SDS011;56186;59.144;37.936;2022-08-19T21:28:06;15.65;;;10.55;;
69085;SDS011;56186;59.144;37.936;2022-08-19T21:30:32;15.77;;;9.45;;
69085;SDS011;56186;59.144;37.936;2022-08-19T21:33:00;19.25;;;9.32;;
69085;SDS011;56186;59.144;37.936;2022-08-19T21:37:54;15.18;;;8.95;;
69085;SDS011;56186;59.144;37.936;2022-08-19T21:40:22;13.40;;;8.88;;
69085;SDS011;56186;59.144;37.936;2022-08-19T21:42:51;16.90;;;9.73;;
69085;SDS011;56186;59.144;37.936;2022-08-19T21:45:17;17.25;;;10.05;;
69085;SDS011;56186;59.144;37.936;2022-08-19T21:47:44;12.93;;;8.30;;
69085;SDS011;56186;59.144;37.936;2022-08-19T21:50:10;17.38;;;8.30;;
69085;SDS011;56186;59.144;37.936;2022-08-19T21:52:37;15.77;;;8.52;;
69085;SDS011;56186;59.144;37.936;2022-08-19T21:55:07;16.95;;;8.30;;
69085;SDS011;56186;59.144;37.936;2022-08-19T21:57:43;13.90;;;7.57;;
69085;SDS011;56186;59.144;37.936;2022-08-19T22:00:19;14.40;;;8.15;;
69085;SDS011;56186;59.144;37.936;2022-08-19T22:02:48;15.65;;;8.30;;
69085;SDS011;56186;59.144;37.936;2022-08-19T22:05:16;17.52;;;9.23;;
69085;SDS011;56186;59.144;37.936;2022-08-19T22:07:50;16.95;;;10.38;;
69085;SDS011;56186;59.144;37.936;2022-08-19T22:10:17;20.50;;;10.52;;
69085;SDS011;56186;59.144;37.936;2022-08-19T22:12:46;16.73;;;9.35;;
69085;SDS011;56186;59.144;37.936;2022-08-19T22:15:13;22.48;;;11.35;;
69085;SDS011;56186;59.144;37.936;2022-08-19T22:17:41;17.70;;;10.23;;
69085;SDS011;56186;59.144;37.936;2022-08-19T22:20:09;21.67;;;10.60;;
69085;SDS011;56186;59.144;37.936;2022-08-19T22:22:43;19.92;;;10.52;;
69085;SDS011;56186;59.144;37.936;2022-08-19T22:25:16;20.40;;;12.68;;
69085;SDS011;56186;59.144;37.936;2022-08-19T22:27:44;18.83;;;11.52;;
69085;SDS011;56186;59.144;37.936;2022-08-19T22:30:11;20.42;;;11.60;;
69085;SDS011;56186;59.144;37.936;2022-08-19T22:32:43;22.83;;;12.40;;
69085;SDS011;56186;59.144;37.936;2022-08-19T22:35:10;22.42;;;12.00;;
69085;SDS011;56186;59.144;37.936;2022-08-19T22:37:36;24.92;;;14.07;;
69085;SDS011;56186;59.144;37.936;2022-08-19T22:40:04;27.38;;;13.27;;
69085;SDS011;56186;59.144;37.936;2022-08-19T22:42:31;27.77;;;15.73;;
69085;SDS011;56186;59.144;37.936;2022-08-19T22:44:57;34.25;;;16.80;;
69085;SDS011;56186;59.144;37.936;2022-08-19T22:47:23;35.88;;;18.92;;
69085;SDS011;56186;59.144;37.936;2022-08-19T22:49:50;41.65;;;20.30;;
69085;SDS011;56186;59.144;37.936;2022-08-19T22:52:17;39.88;;;18.52;;
69085;SDS011;56186;59.144;37.936;2022-08-19T22:54:47;34.78;;;16.15;;
69085;SDS011;56186;59.144;37.936;2022-08-19T22:57:15;38.28;;;19.55;;
69085;SDS011;56186;59.144;37.936;2022-08-19T22:59:47;37.58;;;20.15;;
69085;SDS011;56186;59.144;37.936;2022-08-19T23:02:24;35.35;;;17.77;;
69085;SDS011;56186;59.144;37.936;2022-08-19T23:04:58;35.53;;;16.83;;
69085;SDS011;56186;59.144;37.936;2022-08-19T23:07:28;35.25;;;17.40;;
69085;SDS011;56186;59.144;37.936;2022-08-19T23:09:55;30.75;;;16.23;;
69085;SDS011;56186;59.144;37.936;2022-08-19T23:12:34;31.23;;;17.45;;
69085;SDS011;56186;59.144;37.936;2022-08-19T23:15:09;30.10;;;18.10;;
69085;SDS011;56186;59.144;37.936;2022-08-19T23:17:38;34.58;;;17.92;;
69085;SDS011;56186;59.144;37.936;2022-08-19T23:20:11;29.50;;;16.50;;
69085;SDS011;56186;59.144;37.936;2022-08-19T23:22:40;30.88;;;15.75;;
69085;SDS011;56186;59.144;37.936;2022-08-19T23:25:09;23.27;;;14.82;;
69085;SDS011;56186;59.144;37.936;2022-08-19T23:27:38;26.65;;;14.43;;
69085;SDS011;56186;59.144;37.936;2022-08-19T23:30:22;24.10;;;14.48;;
69085;SDS011;56186;59.144;37.936;2022-08-19T23:32:57;22.63;;;13.80;;
69085;SDS011;56186;59.144;37.936;2022-08-19T23:35:25;32.22;;;13.43;;
69085;SDS011;56186;59.144;37.936;2022-08-19T23:37:57;22.33;;;14.05;;
69085;SDS011;56186;59.144;37.936;2022-08-19T23:40:26;25.50;;;14.10;;
69085;SDS011;56186;59.144;37.936;2022-08-19T23:42:53;21.70;;;13.77;;
69085;SDS011;56186;59.144;37.936;2022-08-19T23:45:21;23.88;;;13.82;;
69085;SDS011;56186;59.144;37.936;2022-08-19T23:47:49;24.98;;;15.32;;
69085;SDS011;56186;59.144;37.936;2022-08-19T23:50:15;25.02;;;14.35;;
69085;SDS011;56186;59.144;37.936;2022-08-19T23:52:43;27.98;;;15.73;;
69085;SDS011;56186;59.144;37.936;2022-08-19T23:55:12;24.75;;;15.43;;
69085;SDS011;56186;59.144;37.936;2022-08-19T23:57:39;25.83;;;17.15;;
